Time;durP1;ratioP1;P1;durP2;ratioP2;P2;SDS_P1;SDS_P2;PMS_P1;PMS_P2;Temp;Humidity;BMP_temperature;BMP_pressure;BME280_temperature;BME280_humidity;BME280_pressure;Samples;Min_cycle;Max_cycle;Signal;HPM_P1;HPM_P2
2023/06/15 00:02:26;;;;;;;9.00;7.75;;;18.00;51.80;;;;;;4979752;28;114322;-79
2023/06/15 00:04:54;;;;;;;9.68;7.43;;;17.90;51.80;;;;;;4979967;28;114226;-79
2023/06/15 00:07:21;;;;;;;9.60;7.20;;;18.00;51.90;;;;;;4964246;28;115500;-79
2023/06/15 00:09:48;;;;;;;9.82;7.55;;;17.90;51.90;;;;;;4964469;28;117446;-79
2023/06/15 00:12:16;;;;;;;9.52;7.43;;;17.90;52.00;;;;;;4965301;28;115161;-79
2023/06/15 00:14:43;;;;;;;9.27;6.70;;;17.90;51.90;;;;;;4965559;28;114229;-78
2023/06/15 00:17:11;;;;;;;9.93;7.68;;;17.90;52.00;;;;;;4963743;28;116372;-79
2023/06/15 00:19:39;;;;;;;9.25;7.47;;;17.90;52.10;;;;;;4963087;28;114755;-78
2023/06/15 00:22:06;;;;;;;10.40;8.52;;;17.80;52.10;;;;;;4965271;28;114543;-79
2023/06/15 00:24:33;;;;;;;11.57;8.30;;;17.80;52.10;;;;;;4947172;28;114727;-79
2023/06/15 00:27:00;;;;;;;8.43;7.13;;;17.80;52.30;;;;;;4963776;28;114813;-79
2023/06/15 00:29:29;;;;;;;8.15;6.60;;;17.80;52.20;;;;;;4963680;28;116899;-79
2023/06/15 00:31:56;;;;;;;9.00;7.57;;;17.80;52.10;;;;;;4977600;28;114658;-79
2023/06/15 00:34:23;;;;;;;11.73;9.52;;;17.80;52.20;;;;;;4974775;28;114182;-79
2023/06/15 00:36:50;;;;;;;10.48;7.75;;;17.80;52.30;;;;;;4984132;28;115205;-80
2023/06/15 00:39:20;;;;;;;10.50;7.43;;;17.80;52.20;;;;;;4961259;28;114592;-79
2023/06/15 00:41:47;;;;;;;8.45;6.93;;;17.80;52.20;;;;;;4963578;28;114500;-79
2023/06/15 00:44:14;;;;;;;10.48;7.20;;;17.80;52.20;;;;;;4980377;28;114379;-79
2023/06/15 00:46:41;;;;;;;13.45;12.07;;;17.80;52.10;;;;;;4959844;28;115273;-78
2023/06/15 00:49:08;;;;;;;13.38;11.90;;;17.80;52.10;;;;;;4979156;28;114959;-78
2023/06/15 00:51:39;;;;;;;11.13;9.90;;;17.80;52.10;;;;;;4962728;28;114273;-78
2023/06/15 00:54:07;;;;;;;17.80;16.05;;;17.80;52.10;;;;;;4979145;28;114310;-79
2023/06/15 00:56:35;;;;;;;11.88;9.80;;;17.80;52.30;;;;;;4978603;28;114963;-79
2023/06/15 00:59:02;;;;;;;13.65;10.10;;;17.80;52.20;;;;;;4963564;28;114871;-79
2023/06/15 01:01:29;;;;;;;11.27;8.02;;;17.80;52.30;;;;;;4964207;28;114148;-79
2023/06/15 01:03:57;;;;;;;11.25;8.75;;;17.90;52.20;;;;;;4964172;28;114342;-79
2023/06/15 01:06:24;;;;;;;10.52;8.35;;;17.80;52.20;;;;;;4963651;28;117691;-78
2023/06/15 01:08:57;;;;;;;10.32;8.00;;;17.80;52.20;;;;;;4978217;28;117969;-78
2023/06/15 01:11:24;;;;;;;10.25;7.45;;;17.80;52.30;;;;;;4963291;28;114272;-78
2023/06/15 01:13:51;;;;;;;9.55;7.45;;;17.70;52.50;;;;;;4979882;28;114444;-79
2023/06/15 01:16:38;;;;;;;11.77;7.28;;;17.70;52.50;;;;;;4961942;28;114979;-78
2023/06/15 01:19:09;;;;;;;15.48;11.45;;;17.80;52.40;;;;;;4977965;28;117265;-78
2023/06/15 01:21:37;;;;;;;15.40;10.82;;;17.80;52.60;;;;;;4978677;28;114239;-79
2023/06/15 01:24:23;;;;;;;13.35;9.32;;;17.80;52.60;;;;;;4979010;28;114429;-79
2023/06/15 01:26:52;;;;;;;17.23;10.93;;;17.80;52.40;;;;;;4961959;28;114874;-79
2023/06/15 01:29:20;;;;;;;17.98;10.88;;;17.80;52.70;;;;;;4961645;28;114670;-79
2023/06/15 01:31:49;;;;;;;14.15;9.52;;;17.80;52.70;;;;;;4964063;28;114429;-79
2023/06/15 01:34:18;;;;;;;13.77;10.13;;;17.80;52.60;;;;;;4966313;28;114448;-79
2023/06/15 01:36:45;;;;;;;16.05;10.90;;;17.80;52.70;;;;;;4971646;28;115573;-79
2023/06/15 01:39:12;;;;;;;13.73;9.07;;;17.80;52.70;;;;;;4984588;28;114681;-79
2023/06/15 01:41:41;;;;;;;11.82;8.23;;;17.80;52.60;;;;;;4985511;28;114605;-79
2023/06/15 01:44:08;;;;;;;11.77;8.68;;;17.60;52.90;;;;;;4986247;28;114514;-79
2023/06/15 01:46:38;;;;;;;13.27;8.52;;;17.60;53.10;;;;;;4964639;28;117190;-79
2023/06/15 01:49:05;;;;;;;12.15;8.18;;;17.60;53.10;;;;;;4964857;28;114696;-79
2023/06/15 01:51:32;;;;;;;12.57;8.48;;;17.70;52.90;;;;;;4982572;28;114477;-79
2023/06/15 01:54:01;;;;;;;12.68;9.55;;;17.70;52.80;;;;;;4965734;28;114363;-79
2023/06/15 01:56:29;;;;;;;12.65;9.02;;;17.70;53.10;;;;;;4966097;28;114814;-79
2023/06/15 01:58:56;;;;;;;11.98;8.27;;;17.70;53.00;;;;;;4965099;28;114669;-79
2023/06/15 02:01:23;;;;;;;11.80;8.65;;;17.70;52.90;;;;;;4949795;28;114375;-78
2023/06/15 02:03:53;;;;;;;10.48;8.25;;;17.70;52.90;;;;;;4967206;28;114172;-78
2023/06/15 02:06:20;;;;;;;11.13;8.40;;;17.70;52.80;;;;;;4979657;28;114998;-79
2023/06/15 02:08:50;;;;;;;11.98;8.90;;;17.70;52.90;;;;;;4964564;28;114677;-79
2023/06/15 02:11:18;;;;;;;10.15;7.97;;;17.80;53.00;;;;;;4978742;28;117683;-79
2023/06/15 02:13:46;;;;;;;15.68;9.88;;;17.80;52.70;;;;;;4965612;28;114407;-78
2023/06/15 02:16:15;;;;;;;13.63;8.27;;;17.80;53.00;;;;;;4965941;28;115880;-78
2023/06/15 02:18:44;;;;;;;13.70;10.05;;;17.80;52.70;;;;;;4975677;28;114698;-78
2023/06/15 02:21:12;;;;;;;12.90;8.65;;;17.80;53.00;;;;;;4965643;28;114462;-79
2023/06/15 02:23:39;;;;;;;11.23;8.10;;;17.80;52.70;;;;;;4967085;28;114220;-79
2023/06/15 02:26:08;;;;;;;12.80;8.65;;;17.90;52.60;;;;;;4964322;28;114813;-79
2023/06/15 02:28:36;;;;;;;11.95;8.00;;;17.80;52.60;;;;;;4967638;28;114815;-78
2023/06/15 02:31:03;;;;;;;17.25;11.35;;;17.80;52.50;;;;;;5001726;28;114438;-79
2023/06/15 02:33:32;;;;;;;12.15;9.18;;;17.80;52.90;;;;;;4985731;28;114736;-79
2023/06/15 02:35:59;;;;;;;17.90;12.25;;;17.90;52.70;;;;;;5001267;28;115040;-78
2023/06/15 02:38:26;;;;;;;11.60;7.93;;;17.80;53.00;;;;;;4984403;28;114776;-79
2023/06/15 02:40:54;;;;;;;11.63;8.48;;;17.80;52.70;;;;;;4986863;28;114512;-79
2023/06/15 02:43:23;;;;;;;18.20;12.02;;;17.90;52.80;;;;;;4981409;28;117954;-79
2023/06/15 02:45:50;;;;;;;13.23;9.48;;;17.90;53.00;;;;;;4964662;28;114949;-79
2023/06/15 02:48:18;;;;;;;17.17;12.93;;;17.80;52.80;;;;;;4983467;28;114681;-79
2023/06/15 02:50:45;;;;;;;17.55;12.23;;;17.80;53.20;;;;;;4985423;28;114343;-79
2023/06/15 02:53:18;;;;;;;14.35;10.18;;;17.80;53.30;;;;;;4975053;28;115391;-79
2023/06/15 02:55:46;;;;;;;16.58;11.10;;;17.80;53.00;;;;;;4963742;28;114866;-79
2023/06/15 02:58:15;;;;;;;17.50;11.73;;;17.70;53.30;;;;;;4964303;28;114586;-79
2023/06/15 03:01:02;;;;;;;15.60;11.40;;;17.70;53.50;;;;;;4966326;28;114285;-78
2023/06/15 03:03:40;;;;;;;21.52;13.98;;;17.60;53.60;;;;;;4964693;28;114499;-78
2023/06/15 03:06:09;;;;;;;22.75;15.90;;;17.60;54.00;;;;;;4964024;28;114836;-79
2023/06/15 03:08:39;;;;;;;23.08;15.45;;;17.60;54.00;;;;;;4963987;28;114744;-79
2023/06/15 03:11:27;;;;;;;17.73;10.88;;;17.60;54.00;;;;;;4963884;28;114465;-79
2023/06/15 03:13:56;;;;;;;21.23;14.38;;;17.60;53.70;;;;;;4965068;28;116175;-79
2023/06/15 03:16:25;;;;;;;13.90;9.23;;;17.70;54.00;;;;;;4972863;28;118623;-79
2023/06/15 03:18:57;;;;;;;12.00;8.35;;;17.70;53.60;;;;;;4976523;28;114758;-79
2023/06/15 03:21:25;;;;;;;13.82;10.43;;;17.70;53.50;;;;;;4964423;28;114538;-79
2023/06/15 03:23:54;;;;;;;18.20;10.30;;;17.70;53.60;;;;;;4964277;28;114250;-79
2023/06/15 03:26:26;;;;;;;23.13;15.55;;;17.70;53.40;;;;;;4963732;28;114955;-79
2023/06/15 03:28:57;;;;;;;17.48;12.77;;;17.80;53.90;;;;;;4962086;28;114651;-79
2023/06/15 03:31:33;;;;;;;15.95;10.20;;;17.80;53.50;;;;;;4964848;28;114640;-79
2023/06/15 03:34:02;;;;;;;17.43;11.27;;;17.80;53.40;;;;;;4964741;28;114312;-79
2023/06/15 03:36:29;;;;;;;15.35;10.82;;;17.80;53.40;;;;;;4963390;28;115160;-79
2023/06/15 03:38:57;;;;;;;15.98;10.80;;;17.80;53.30;;;;;;4963803;28;115910;-78
2023/06/15 03:41:28;;;;;;;14.98;10.45;;;17.80;53.20;;;;;;4964552;28;114303;-79
2023/06/15 03:43:56;;;;;;;19.05;14.32;;;17.80;53.20;;;;;;4964483;28;114262;-79
2023/06/15 03:46:24;;;;;;;22.65;15.20;;;17.90;53.50;;;;;;4962390;28;116345;-79
2023/06/15 03:48:55;;;;;;;19.77;12.90;;;17.80;53.70;;;;;;4946869;28;117318;-79
2023/06/15 03:51:22;;;;;;;21.73;14.52;;;17.70;53.80;;;;;;4964340;28;114463;-79
2023/06/15 03:53:49;;;;;;;22.85;14.05;;;17.60;54.10;;;;;;4963011;28;114497;-79
2023/06/15 03:56:17;;;;;;;16.02;10.85;;;17.40;54.60;;;;;;4979038;28;115203;-80
2023/06/15 03:58:44;;;;;;;21.33;14.90;;;17.30;54.40;;;;;;4947008;28;117282;-79
2023/06/15 04:01:14;;;;;;;19.60;13.15;;;17.40;54.70;;;;;;4964115;28;114311;-79
2023/06/15 04:03:41;;;;;;;17.60;11.57;;;17.50;54.30;;;;;;4965634;28;114318;-79
2023/06/15 04:06:11;;;;;;;22.85;16.23;;;17.60;53.90;;;;;;4959055;28;116190;-79
2023/06/15 04:08:38;;;;;;;20.15;14.60;;;17.70;54.10;;;;;;4963180;28;117250;-79
2023/06/15 04:11:07;;;;;;;24.75;16.52;;;17.70;54.10;;;;;;4963504;28;117418;-80
2023/06/15 04:13:35;;;;;;;24.73;16.23;;;17.80;54.20;;;;;;4963912;28;114377;-79
2023/06/15 04:16:03;;;;;;;16.80;12.10;;;17.80;54.20;;;;;;4962922;28;114872;-79
2023/06/15 04:18:30;;;;;;;26.10;16.73;;;17.80;53.60;;;;;;4946967;28;117287;-79
2023/06/15 04:20:58;;;;;;;20.70;15.88;;;17.90;53.90;;;;;;4964034;28;114226;-79
2023/06/15 04:23:25;;;;;;;32.80;18.58;;;18.00;54.00;;;;;;4963914;28;114574;-79
2023/06/15 04:25:53;;;;;;;33.35;20.80;;;18.20;54.40;;;;;;4964290;28;115890;-79
2023/06/15 04:28:21;;;;;;;24.58;17.73;;;18.30;54.30;;;;;;4963080;28;114671;-79
2023/06/15 04:30:52;;;;;;;32.45;20.92;;;18.50;53.90;;;;;;4964161;28;114462;-79
2023/06/15 04:33:20;;;;;;;30.42;19.80;;;18.70;54.20;;;;;;4963459;28;114498;-79
2023/06/15 04:35:49;;;;;;;27.50;18.95;;;18.80;53.80;;;;;;4945568;28;118527;-78
2023/06/15 04:38:17;;;;;;;29.17;18.70;;;19.00;53.30;;;;;;4946843;28;116212;-79
2023/06/15 04:40:48;;;;;;;21.95;15.15;;;19.20;52.80;;;;;;4964085;28;114276;-78
2023/06/15 04:43:16;;;;;;;22.08;16.58;;;19.30;51.90;;;;;;4963644;28;117756;-79
2023/06/15 04:45:44;;;;;;;27.15;18.15;;;19.60;51.60;;;;;;4963059;28;115073;-78
2023/06/15 04:48:14;;;;;;;24.48;16.80;;;19.70;51.30;;;;;;4972504;28;117037;-78
2023/06/15 04:50:47;;;;;;;25.58;17.33;;;19.80;51.00;;;;;;4963726;28;114610;-78
2023/06/15 04:53:18;;;;;;;26.95;18.90;;;19.80;50.70;;;;;;4979757;28;114332;-78
2023/06/15 04:55:48;;;;;;;25.90;17.35;;;19.70;50.80;;;;;;4962546;28;115309;-78
2023/06/15 04:58:15;;;;;;;23.27;15.35;;;19.60;50.90;;;;;;4962155;28;114690;-78
2023/06/15 05:00:42;;;;;;;25.40;16.75;;;19.40;50.90;;;;;;4962981;28;114342;-78
2023/06/15 05:03:11;;;;;;;27.88;19.00;;;19.40;51.00;;;;;;4963439;28;114638;-78
2023/06/15 05:05:39;;;;;;;28.15;18.60;;;19.50;51.40;;;;;;4961758;28;115417;-78
2023/06/15 05:08:07;;;;;;;24.30;17.42;;;19.40;51.40;;;;;;4965461;28;115066;-78
2023/06/15 05:10:35;;;;;;;21.67;16.23;;;19.50;51.10;;;;;;4966158;28;114665;-78
2023/06/15 05:13:12;;;;;;;23.25;17.27;;;19.60;50.50;;;;;;4966752;28;114610;-78
2023/06/15 05:15:40;;;;;;;18.85;15.02;;;19.70;50.20;;;;;;4972422;28;114912;-80
2023/06/15 05:18:07;;;;;;;14.18;10.95;;;19.80;49.80;;;;;;4965056;28;114783;-79
2023/06/15 05:20:36;;;;;;;20.67;12.30;;;19.80;49.20;;;;;;4948563;28;116135;-79
2023/06/15 05:23:04;;;;;;;31.98;15.00;;;19.70;49.20;;;;;;4981960;28;114308;-79
2023/06/15 05:25:34;;;;;;;18.90;15.50;;;19.60;49.30;;;;;;4963942;28;115052;-79
2023/06/15 05:28:03;;;;;;;19.55;15.40;;;19.40;49.30;;;;;;4978263;28;114728;-79
2023/06/15 05:30:32;;;;;;;22.77;17.10;;;19.30;49.80;;;;;;4965181;28;114339;-79
2023/06/15 05:33:00;;;;;;;18.85;13.82;;;19.30;50.10;;;;;;4948730;28;114722;-79
2023/06/15 05:35:27;;;;;;;19.67;15.55;;;19.20;50.10;;;;;;4964473;28;115128;-79
2023/06/15 05:37:55;;;;;;;23.55;16.70;;;19.30;50.50;;;;;;4963270;28;114734;-80
2023/06/15 05:40:23;;;;;;;18.77;15.10;;;19.40;50.30;;;;;;4965600;28;115000;-79
2023/06/15 05:42:51;;;;;;;16.50;12.90;;;19.50;49.90;;;;;;4967576;28;114355;-79
2023/06/15 05:45:18;;;;;;;21.02;16.08;;;19.70;49.50;;;;;;4964161;28;115032;-79
2023/06/15 05:47:47;;;;;;;19.85;16.17;;;19.70;49.30;;;;;;4968275;28;115363;-79
2023/06/15 05:50:14;;;;;;;20.58;15.18;;;19.70;49.30;;;;;;4965277;28;114675;-79
2023/06/15 05:52:41;;;;;;;18.92;15.50;;;19.60;49.30;;;;;;4964170;28;114609;-79
2023/06/15 05:55:09;;;;;;;17.75;14.48;;;19.60;49.50;;;;;;4966308;28;115558;-77
2023/06/15 05:57:36;;;;;;;18.80;14.63;;;19.50;49.60;;;;;;4948030;28;115201;-78
2023/06/15 06:00:18;;;;;;;19.40;14.27;;;19.30;49.70;;;;;;4969134;28;114308;-79
2023/06/15 06:03:03;;;;;;;18.60;13.77;;;19.30;49.80;;;;;;5000993;27;115205;-76
2023/06/15 06:05:39;;;;;;;16.70;12.82;;;19.30;50.10;;;;;;4961570;28;117054;-77
2023/06/15 06:08:06;;;;;;;18.58;13.18;;;19.10;49.90;;;;;;4997020;28;114980;-77
2023/06/15 06:10:36;;;;;;;16.13;12.73;;;19.10;50.10;;;;;;4964420;28;114627;-77
2023/06/15 06:13:27;;;;;;;14.60;12.23;;;19.00;50.10;;;;;;4962167;28;114559;-77
2023/06/15 06:15:56;;;;;;;18.15;12.82;;;19.00;50.10;;;;;;4945931;28;116393;-77
2023/06/15 06:18:27;;;;;;;14.43;11.52;;;19.00;50.00;;;;;;4965360;28;115941;-76
2023/06/15 06:20:55;;;;;;;15.05;11.88;;;19.00;50.00;;;;;;4964556;28;114351;-77
2023/06/15 06:23:24;;;;;;;15.88;12.23;;;19.00;50.00;;;;;;4953001;28;116527;-76
2023/06/15 06:25:53;;;;;;;12.75;10.50;;;19.00;50.10;;;;;;4932817;28;116065;-77
2023/06/15 06:28:24;;;;;;;15.32;11.05;;;19.10;49.90;;;;;;4992142;28;114580;-77
2023/06/15 06:30:52;;;;;;;14.25;11.25;;;19.20;49.80;;;;;;4971107;28;116082;-77
2023/06/15 06:33:22;;;;;;;16.85;12.05;;;19.30;49.60;;;;;;4962198;28;114661;-77
2023/06/15 06:35:49;;;;;;;15.50;12.25;;;19.30;49.70;;;;;;4964494;28;115003;-77
2023/06/15 06:38:26;;;;;;;15.45;12.82;;;19.30;49.60;;;;;;4979288;28;114813;-77
2023/06/15 06:40:53;;;;;;;14.45;11.60;;;19.30;49.50;;;;;;4966173;28;116626;-77
2023/06/15 06:43:20;;;;;;;13.75;11.52;;;19.30;49.60;;;;;;4965368;28;114557;-77
2023/06/15 06:45:48;;;;;;;12.90;11.38;;;19.30;49.60;;;;;;4962619;28;114847;-77
2023/06/15 06:48:15;;;;;;;14.02;11.57;;;19.40;49.90;;;;;;4966868;28;114961;-79
2023/06/15 06:50:42;;;;;;;15.02;11.13;;;19.50;49.30;;;;;;4965650;28;114241;-76
2023/06/15 06:53:10;;;;;;;14.30;10.35;;;19.70;49.30;;;;;;4966143;28;114295;-77
2023/06/15 06:55:37;;;;;;;13.15;10.45;;;19.90;48.60;;;;;;4961731;28;115557;-77
2023/06/15 06:58:06;;;;;;;12.48;10.55;;;20.10;48.60;;;;;;4977428;28;115363;-77
2023/06/15 07:00:33;;;;;;;12.68;10.05;;;20.30;48.40;;;;;;4965033;28;114350;-78
2023/06/15 07:03:02;;;;;;;12.65;9.68;;;20.20;48.00;;;;;;4965785;28;116172;-77
2023/06/15 07:05:29;;;;;;;15.13;10.57;;;20.10;47.90;;;;;;4962783;28;116111;-78
2023/06/15 07:07:56;;;;;;;13.00;9.88;;;20.00;48.00;;;;;;4965906;28;114697;-77
2023/06/15 07:10:25;;;;;;;15.77;10.73;;;19.90;48.20;;;;;;4982625;28;114474;-79
2023/06/15 07:12:55;;;;;;;14.98;10.63;;;19.80;48.30;;;;;;4967682;28;114330;-79
2023/06/15 07:15:23;;;;;;;12.68;10.18;;;19.80;48.40;;;;;;4969248;28;114843;-77
2023/06/15 07:17:50;;;;;;;11.02;9.77;;;19.70;48.50;;;;;;4964076;28;117806;-78
2023/06/15 07:20:17;;;;;;;13.40;10.52;;;19.70;48.30;;;;;;4964791;28;114458;-77
2023/06/15 07:22:44;;;;;;;12.20;10.10;;;19.70;48.50;;;;;;4966360;28;114548;-77
2023/06/15 07:25:12;;;;;;;11.98;10.43;;;19.60;48.50;;;;;;4965128;28;115156;-76
2023/06/15 07:27:39;;;;;;;11.88;10.50;;;19.60;48.80;;;;;;4971389;28;119129;-77
2023/06/15 07:30:07;;;;;;;15.20;11.07;;;19.50;48.90;;;;;;4999922;28;114520;-77
2023/06/15 07:32:35;;;;;;;14.73;11.85;;;19.50;49.00;;;;;;4967107;28;114427;-76
2023/06/15 07:35:02;;;;;;;13.10;10.70;;;19.50;49.00;;;;;;4983873;28;120309;-76
2023/06/15 07:37:30;;;;;;;14.30;11.40;;;19.50;49.20;;;;;;4982307;28;117600;-77
2023/06/15 07:39:57;;;;;;;16.48;11.63;;;19.50;49.50;;;;;;4984563;28;114405;-78
2023/06/15 07:42:26;;;;;;;14.38;12.88;;;19.60;49.50;;;;;;4984433;28;114461;-77
2023/06/15 07:44:53;;;;;;;12.05;10.75;;;19.50;49.70;;;;;;4999748;28;116169;-77
2023/06/15 07:47:23;;;;;;;13.35;10.13;;;19.40;49.70;;;;;;4965163;28;117692;-77
2023/06/15 07:49:51;;;;;;;14.50;11.20;;;19.30;49.50;;;;;;4981083;28;114435;-77
2023/06/15 07:52:20;;;;;;;13.52;10.95;;;19.40;49.70;;;;;;4965671;28;114303;-76
2023/06/15 07:54:48;;;;;;;15.25;10.13;;;19.50;49.80;;;;;;4971529;28;117352;-77
2023/06/15 07:57:18;;;;;;;12.48;10.10;;;19.60;49.70;;;;;;4975773;28;115451;-77
2023/06/15 07:59:47;;;;;;;13.07;10.07;;;19.80;48.70;;;;;;4965269;28;114626;-77
2023/06/15 08:02:14;;;;;;;11.70;10.07;;;19.90;48.90;;;;;;4965452;28;114485;-76
2023/06/15 08:04:46;;;;;;;12.35;11.05;;;20.10;48.40;;;;;;4979313;28;115149;-79
2023/06/15 08:07:15;;;;;;;15.10;11.40;;;20.10;48.50;;;;;;4962404;28;115221;-77
2023/06/15 08:09:42;;;;;;;11.82;10.57;;;20.10;48.40;;;;;;4964048;28;114436;-77
2023/06/15 08:12:10;;;;;;;12.07;10.57;;;20.00;48.30;;;;;;4969120;28;114572;-77
2023/06/15 08:14:37;;;;;;;12.63;10.32;;;20.00;48.20;;;;;;4969490;28;115715;-78
2023/06/15 08:17:05;;;;;;;11.90;10.32;;;20.00;48.30;;;;;;4973397;28;114676;-76
2023/06/15 08:19:34;;;;;;;13.27;11.40;;;20.00;48.30;;;;;;4982752;28;114907;-78
2023/06/15 08:22:03;;;;;;;13.02;11.63;;;20.10;48.70;;;;;;4999897;28;114178;-76
2023/06/15 08:24:33;;;;;;;12.90;11.50;;;20.20;48.20;;;;;;4969940;28;115185;-79
2023/06/15 08:27:00;;;;;;;11.90;10.68;;;20.20;48.50;;;;;;4978928;28;115314;-78
2023/06/15 08:29:35;;;;;;;11.38;10.18;;;20.30;47.40;;;;;;4944881;28;119043;-78
2023/06/15 08:32:08;;;;;;;12.02;10.60;;;20.30;47.30;;;;;;4977739;28;114427;-77
2023/06/15 08:34:37;;;;;;;12.00;10.80;;;20.40;46.90;;;;;;4961489;28;114911;-76
2023/06/15 08:37:05;;;;;;;10.27;9.27;;;20.50;47.20;;;;;;4968593;28;118084;-77
2023/06/15 08:39:33;;;;;;;12.98;10.77;;;20.70;47.00;;;;;;4947066;28;114381;-76
2023/06/15 08:42:02;;;;;;;12.27;9.93;;;20.80;46.80;;;;;;4950417;28;114786;-76
2023/06/15 08:44:34;;;;;;;11.50;10.15;;;20.90;47.10;;;;;;4945516;28;117947;-77
2023/06/15 08:47:03;;;;;;;11.50;10.27;;;21.00;46.10;;;;;;4974743;28;115938;-77
2023/06/15 08:49:31;;;;;;;9.18;8.25;;;21.00;46.20;;;;;;4965653;28;115077;-78
2023/06/15 08:52:00;;;;;;;10.95;9.80;;;21.00;45.40;;;;;;4963098;28;114589;-77
2023/06/15 08:54:29;;;;;;;10.40;9.27;;;20.90;45.20;;;;;;4977723;28;115020;-77
2023/06/15 08:56:56;;;;;;;10.20;9.10;;;20.80;45.10;;;;;;4962457;28;118257;-77
2023/06/15 08:59:28;;;;;;;10.50;9.48;;;20.80;45.60;;;;;;4965109;28;114332;-78
2023/06/15 09:01:55;;;;;;;10.20;8.73;;;20.70;45.70;;;;;;4932607;28;114328;-77
2023/06/15 09:04:25;;;;;;;11.80;9.35;;;20.60;46.00;;;;;;4946731;28;118427;-77
2023/06/15 09:07:05;;;;;;;11.35;9.82;;;20.50;46.00;;;;;;4985926;28;115262;-77
2023/06/15 09:09:32;;;;;;;10.40;9.40;;;20.50;46.30;;;;;;4977415;28;114692;-76
2023/06/15 09:12:00;;;;;;;10.07;9.02;;;20.40;46.20;;;;;;4998222;28;114336;-77
2023/06/15 09:14:31;;;;;;;8.98;8.07;;;20.30;46.10;;;;;;4962691;28;114803;-77
2023/06/15 09:16:58;;;;;;;9.50;8.10;;;20.20;46.20;;;;;;4946021;28;115195;-76
2023/06/15 09:19:37;;;;;;;9.77;8.77;;;20.20;45.90;;;;;;4963448;28;114665;-77
2023/06/15 09:22:07;;;;;;;9.35;8.13;;;20.30;45.50;;;;;;4962219;28;114340;-76
2023/06/15 09:24:38;;;;;;;9.10;8.20;;;20.20;45.60;;;;;;4966885;28;115512;-78
2023/06/15 09:27:15;;;;;;;9.30;7.78;;;20.30;45.30;;;;;;4947955;28;116597;-78
2023/06/15 09:30:01;;;;;;;10.63;8.65;;;20.60;44.60;;;;;;4968235;28;114143;-77
2023/06/15 09:32:29;;;;;;;9.57;8.32;;;20.90;44.70;;;;;;4998060;28;114368;-77
2023/06/15 09:35:00;;;;;;;8.88;7.97;;;21.00;44.20;;;;;;4963592;28;115074;-77
2023/06/15 09:37:27;;;;;;;9.88;8.35;;;21.20;43.60;;;;;;4957244;28;115436;-77
2023/06/15 09:39:55;;;;;;;8.55;7.18;;;21.30;43.70;;;;;;4982171;28;114721;-77
2023/06/15 09:42:26;;;;;;;7.78;6.97;;;21.40;42.70;;;;;;4965784;28;114187;-77
2023/06/15 09:44:56;;;;;;;9.18;7.78;;;21.40;42.00;;;;;;4963602;28;115568;-77
2023/06/15 09:47:30;;;;;;;8.25;7.45;;;21.30;42.40;;;;;;4961859;28;115874;-79
2023/06/15 09:50:02;;;;;;;8.35;7.55;;;21.30;42.50;;;;;;4966542;28;114569;-75
2023/06/15 09:52:31;;;;;;;7.97;7.10;;;21.20;42.50;;;;;;4983989;28;114299;-77
2023/06/15 09:54:59;;;;;;;7.70;6.88;;;21.00;42.60;;;;;;4985192;28;116672;-77
2023/06/15 09:57:26;;;;;;;8.07;7.28;;;20.80;42.40;;;;;;4964662;28;114819;-78
2023/06/15 09:59:53;;;;;;;29.42;8.85;;;20.80;42.20;;;;;;4969319;28;114404;-77
2023/06/15 10:02:21;;;;;;;9.38;7.43;;;20.80;42.50;;;;;;4967214;28;114510;-78
2023/06/15 10:04:48;;;;;;;8.00;6.93;;;20.80;42.70;;;;;;4964019;28;115032;-77
2023/06/15 10:07:18;;;;;;;7.53;6.82;;;20.70;42.30;;;;;;4965401;28;116143;-77
2023/06/15 10:09:46;;;;;;;8.98;8.07;;;20.70;42.40;;;;;;4981278;28;114287;-78
2023/06/15 10:12:16;;;;;;;8.25;7.45;;;20.70;42.60;;;;;;4981754;28;114344;-77
2023/06/15 10:15:01;;;;;;;8.32;7.53;;;20.60;43.00;;;;;;4981667;28;116962;-77
2023/06/15 10:17:34;;;;;;;10.60;8.25;;;20.50;43.80;;;;;;4967487;28;115913;-79
2023/06/15 10:20:08;;;;;;;9.98;8.95;;;20.30;44.00;;;;;;4967973;28;114259;-77
2023/06/15 10:22:48;;;;;;;8.98;8.15;;;20.30;44.50;;;;;;4964871;28;114445;-77
2023/06/15 10:25:15;;;;;;;9.18;8.27;;;20.30;44.50;;;;;;4949914;28;115164;-78
2023/06/15 10:27:44;;;;;;;11.02;8.13;;;20.30;44.50;;;;;;4966112;28;115912;-77
2023/06/15 10:30:20;;;;;;;11.30;8.48;;;20.20;44.30;;;;;;4967314;28;114459;-78
2023/06/15 10:33:15;;;;;;;9.38;8.43;;;20.30;44.10;;;;;;4981748;28;114430;-78
2023/06/15 10:35:50;;;;;;;9.68;8.77;;;20.40;44.40;;;;;;4969608;28;116244;-78
2023/06/15 10:38:26;;;;;;;9.73;8.82;;;20.50;44.00;;;;;;4983461;28;115138;-78
2023/06/15 10:40:54;;;;;;;9.40;8.50;;;20.60;43.80;;;;;;4965004;28;115669;-77
2023/06/15 10:43:27;;;;;;;8.50;7.60;;;20.70;43.20;;;;;;4981609;28;114333;-78
2023/06/15 10:45:55;;;;;;;8.82;8.00;;;21.00;43.00;;;;;;4969525;28;114886;-78
2023/06/15 10:48:27;;;;;;;10.35;9.35;;;21.10;42.60;;;;;;4989266;28;117834;-77
2023/06/15 10:51:08;;;;;;;9.73;8.38;;;21.30;42.70;;;;;;4965524;28;114214;-77
2023/06/15 10:53:39;;;;;;;26.08;10.45;;;21.40;42.80;;;;;;4980405;28;114596;-77
2023/06/15 10:56:20;;;;;;;9.88;8.75;;;21.50;42.90;;;;;;4980447;28;115592;-79
2023/06/15 10:58:55;;;;;;;9.03;8.13;;;21.70;42.60;;;;;;4963371;28;118344;-80
2023/06/15 11:01:33;;;;;;;8.70;7.80;;;21.70;42.00;;;;;;4965054;28;114593;-77
2023/06/15 11:04:29;;;;;;;9.95;8.65;;;21.80;42.10;;;;;;4968979;28;114338;-77
2023/06/15 11:06:59;;;;;;;9.45;8.45;;;21.80;42.40;;;;;;4963224;28;117104;-78
2023/06/15 11:09:33;;;;;;;;;;;21.80;42.60;;;;;;4979890;28;117308;-78
2023/06/15 11:12:00;;;;;;;10.82;9.63;;;21.80;43.00;;;;;;4967055;28;114462;-77
2023/06/15 11:14:29;;;;;;;9.48;8.57;;;21.70;42.60;;;;;;4979544;28;114593;-76
2023/06/15 11:17:05;;;;;;;10.57;8.82;;;21.70;42.50;;;;;;4941687;28;117311;-77
2023/06/15 11:19:42;;;;;;;9.73;8.68;;;21.70;42.10;;;;;;4963147;28;115988;-76
2023/06/15 11:22:12;;;;;;;9.75;8.85;;;21.50;42.00;;;;;;4964586;28;114270;-77
2023/06/15 11:24:39;;;;;;;9.20;8.30;;;21.30;42.10;;;;;;4979326;28;114850;-76
2023/06/15 11:27:11;;;;;;;10.02;9.02;;;21.30;42.60;;;;;;4963931;28;115369;-76
2023/06/15 11:29:40;;;;;;;9.10;8.27;;;21.30;42.60;;;;;;4960289;28;114615;-76
2023/06/15 11:32:10;;;;;;;9.52;8.57;;;21.30;42.20;;;;;;4979478;28;114250;-78
2023/06/15 11:34:40;;;;;;;9.45;8.32;;;21.40;41.90;;;;;;4979119;28;114234;-77
2023/06/15 11:37:12;;;;;;;9.48;8.57;;;21.40;41.70;;;;;;4961020;28;117615;-80
2023/06/15 11:39:42;;;;;;;9.57;8.43;;;21.30;41.80;;;;;;4960274;28;114735;-77
2023/06/15 11:42:09;;;;;;;9.48;8.57;;;21.20;41.50;;;;;;4978818;28;114429;-76
2023/06/15 11:44:39;;;;;;;9.95;8.60;;;21.00;42.40;;;;;;4977112;28;114215;-76
2023/06/15 11:47:09;;;;;;;9.32;8.43;;;20.90;42.30;;;;;;4946748;28;117622;-77
2023/06/15 11:49:37;;;;;;;10.35;8.68;;;20.90;42.20;;;;;;4978000;28;114602;-77
2023/06/15 11:52:05;;;;;;;9.55;8.50;;;20.90;42.10;;;;;;4964085;28;114999;-77
2023/06/15 11:54:32;;;;;;;9.57;8.55;;;21.00;42.00;;;;;;4978753;28;114734;-78
2023/06/15 11:57:18;;;;;;;9.15;8.25;;;21.00;41.40;;;;;;4962791;28;116615;-81
2023/06/15 11:59:46;;;;;;;9.07;8.20;;;20.90;41.40;;;;;;4963168;28;115724;-76
2023/06/15 12:02:17;;;;;;;10.82;8.20;;;20.80;40.50;;;;;;4961600;28;114458;-77
2023/06/15 12:04:47;;;;;;;9.13;8.23;;;20.80;41.20;;;;;;4978798;28;114478;-78
2023/06/15 12:07:14;;;;;;;9.30;8.40;;;20.70;41.00;;;;;;4977721;28;115915;-78
2023/06/15 12:10:01;;;;;;;9.85;7.68;;;20.80;41.20;;;;;;4975876;28;115373;-78
2023/06/15 12:12:32;;;;;;;15.40;13.88;;;20.80;40.00;;;;;;4981208;28;115424;-77
2023/06/15 12:15:00;;;;;;;8.52;7.63;;;20.90;40.00;;;;;;4962460;28;114425;-76
2023/06/15 12:17:38;;;;;;;8.35;7.43;;;21.10;40.20;;;;;;4978274;28;114838;-78
2023/06/15 12:20:11;;;;;;;7.47;6.65;;;21.20;40.30;;;;;;4961449;28;115128;-77
2023/06/15 12:22:46;;;;;;;7.07;6.20;;;21.30;39.30;;;;;;4962095;28;114622;-77
2023/06/15 12:25:14;;;;;;;7.88;5.72;;;21.30;39.60;;;;;;4963680;28;114239;-78
2023/06/15 12:27:42;;;;;;;7.72;6.90;;;21.30;38.70;;;;;;4978294;28;114907;-77
2023/06/15 12:30:17;;;;;;;8.00;7.18;;;21.40;39.40;;;;;;4963247;28;114830;-79
2023/06/15 12:32:46;;;;;;;10.15;8.43;;;21.40;39.30;;;;;;4963210;28;114634;-77
2023/06/15 12:35:37;;;;;;;9.10;8.23;;;21.30;39.70;;;;;;4963391;28;114352;-78
2023/06/15 12:38:08;;;;;;;9.55;8.27;;;21.30;39.90;;;;;;4961722;28;115500;-77
2023/06/15 12:40:43;;;;;;;9.55;7.88;;;21.30;39.60;;;;;;4965764;28;116790;-77